sensor_id;sensor_type;location;lat;lon;timestamp;temperature;humidity
28823;DHT22;15961;54.678;9.110;2022-08-30T00:00:19;9.20;99.90
28823;DHT22;15961;54.678;9.110;2022-08-30T00:03:05;9.10;99.90
28823;DHT22;15961;54.678;9.110;2022-08-30T00:05:32;9.10;99.90
28823;DHT22;15961;54.678;9.110;2022-08-30T00:07:58;9.00;99.90
28823;DHT22;15961;54.678;9.110;2022-08-30T00:10:24;9.00;99.90
28823;DHT22;15961;54.678;9.110;2022-08-30T00:12:50;9.00;99.90
28823;DHT22;15961;54.678;9.110;2022-08-30T00:15:17;8.90;99.90
28823;DHT22;15961;54.678;9.110;2022-08-30T00:17:44;8.90;99.90
28823;DHT22;15961;54.678;9.110;2022-08-30T00:20:12;8.90;99.90
28823;DHT22;15961;54.678;9.110;2022-08-30T00:22:38;8.80;99.90
28823;DHT22;15961;54.678;9.110;2022-08-30T00:25:04;8.90;99.90
28823;DHT22;15961;54.678;9.110;2022-08-30T00:27:30;8.90;99.90
28823;DHT22;15961;54.678;9.110;2022-08-30T00:29:56;8.90;99.90
28823;DHT22;15961;54.678;9.110;2022-08-30T00:32:22;8.90;99.90
28823;DHT22;15961;54.678;9.110;2022-08-30T00:34:49;8.90;99.90
28823;DHT22;15961;54.678;9.110;2022-08-30T00:37:16;8.80;99.90
28823;DHT22;15961;54.678;9.110;2022-08-30T00:39:41;8.90;99.90
28823;DHT22;15961;54.678;9.110;2022-08-30T00:42:08;8.90;99.90
28823;DHT22;15961;54.678;9.110;2022-08-30T00:44:34;8.90;99.90
28823;DHT22;15961;54.678;9.110;2022-08-30T00:46:59;8.90;99.90
28823;DHT22;15961;54.678;9.110;2022-08-30T00:49:25;8.90;99.90
28823;DHT22;15961;54.678;9.110;2022-08-30T00:51:53;8.90;99.90
28823;DHT22;15961;54.678;9.110;2022-08-30T00:54:19;8.90;99.90
28823;DHT22;15961;54.678;9.110;2022-08-30T00:56:47;8.90;99.90
28823;DHT22;15961;54.678;9.110;2022-08-30T00:59:13;8.90;99.90
28823;DHT22;15961;54.678;9.110;2022-08-30T01:01:39;8.90;99.90
28823;DHT22;15961;54.678;9.110;2022-08-30T01:04:06;9.00;99.90
28823;DHT22;15961;54.678;9.110;2022-08-30T01:06:33;8.90;99.90
28823;DHT22;15961;54.678;9.110;2022-08-30T01:09:00;9.00;99.90
28823;DHT22;15961;54.678;9.110;2022-08-30T01:11:27;9.00;99.90
28823;DHT22;15961;54.678;9.110;2022-08-30T01:13:54;8.90;99.90
28823;DHT22;15961;54.678;9.110;2022-08-30T01:16:21;8.90;99.90
28823;DHT22;15961;54.678;9.110;2022-08-30T01:18:48;8.90;99.90
28823;DHT22;15961;54.678;9.110;2022-08-30T01:21:40;8.80;99.90
28823;DHT22;15961;54.678;9.110;2022-08-30T01:24:07;8.80;99.90
28823;DHT22;15961;54.678;9.110;2022-08-30T01:26:34;8.80;99.90
28823;DHT22;15961;54.678;9.110;2022-08-30T01:29:08;8.80;99.90
28823;DHT22;15961;54.678;9.110;2022-08-30T01:31:34;8.80;99.90
28823;DHT22;15961;54.678;9.110;2022-08-30T01:34:02;8.70;99.90
28823;DHT22;15961;54.678;9.110;2022-08-30T01:36:29;8.80;99.90
28823;DHT22;15961;54.678;9.110;2022-08-30T01:38:57;8.70;99.90
28823;DHT22;15961;54.678;9.110;2022-08-30T01:41:28;8.70;99.90
28823;DHT22;15961;54.678;9.110;2022-08-30T01:43:55;8.70;99.90
28823;DHT22;15961;54.678;9.110;2022-08-30T01:46:24;8.70;99.90
28823;DHT22;15961;54.678;9.110;2022-08-30T01:48:52;8.70;99.90
28823;DHT22;15961;54.678;9.110;2022-08-30T01:51:18;8.70;99.90
28823;DHT22;15961;54.678;9.110;2022-08-30T01:53:44;8.70;99.90
28823;DHT22;15961;54.678;9.110;2022-08-30T01:56:11;8.70;99.90
28823;DHT22;15961;54.678;9.110;2022-08-30T01:58:38;8.70;99.90
28823;DHT22;15961;54.678;9.110;2022-08-30T02:01:06;8.70;99.90
28823;DHT22;15961;54.678;9.110;2022-08-30T02:03:33;8.70;99.90
28823;DHT22;15961;54.678;9.110;2022-08-30T02:06:09;8.80;99.90
28823;DHT22;15961;54.678;9.110;2022-08-30T02:08:36;8.80;99.90
28823;DHT22;15961;54.678;9.110;2022-08-30T02:11:03;8.90;99.90
28823;DHT22;15961;54.678;9.110;2022-08-30T02:13:29;8.90;99.90
28823;DHT22;15961;54.678;9.110;2022-08-30T02:15:55;8.90;99.90
28823;DHT22;15961;54.678;9.110;2022-08-30T02:18:22;9.00;99.90
28823;DHT22;15961;54.678;9.110;2022-08-30T02:20:48;9.10;99.90
28823;DHT22;15961;54.678;9.110;2022-08-30T02:23:14;9.20;99.90
28823;DHT22;15961;54.678;9.110;2022-08-30T02:25:40;9.40;99.90
28823;DHT22;15961;54.678;9.110;2022-08-30T02:28:07;9.60;99.90
28823;DHT22;15961;54.678;9.110;2022-08-30T02:30:32;9.70;99.90
28823;DHT22;15961;54.678;9.110;2022-08-30T02:32:58;9.80;99.90
28823;DHT22;15961;54.678;9.110;2022-08-30T02:35:24;9.80;99.90
28823;DHT22;15961;54.678;9.110;2022-08-30T02:37:50;9.80;99.90
28823;DHT22;15961;54.678;9.110;2022-08-30T02:40:17;9.90;99.90
28823;DHT22;15961;54.678;9.110;2022-08-30T02:42:43;10.00;99.90
28823;DHT22;15961;54.678;9.110;2022-08-30T02:45:09;10.00;99.90
28823;DHT22;15961;54.678;9.110;2022-08-30T02:47:35;10.10;99.90
28823;DHT22;15961;54.678;9.110;2022-08-30T02:50:05;10.10;99.90
28823;DHT22;15961;54.678;9.110;2022-08-30T02:52:31;10.30;99.90
28823;DHT22;15961;54.678;9.110;2022-08-30T02:54:57;10.30;99.90
28823;DHT22;15961;54.678;9.110;2022-08-30T02:57:24;10.40;99.90
28823;DHT22;15961;54.678;9.110;2022-08-30T02:59:49;10.60;99.90
28823;DHT22;15961;54.678;9.110;2022-08-30T03:02:15;10.60;99.90
28823;DHT22;15961;54.678;9.110;2022-08-30T03:04:41;10.60;99.90
28823;DHT22;15961;54.678;9.110;2022-08-30T03:07:09;10.60;99.90
28823;DHT22;15961;54.678;9.110;2022-08-30T03:09:35;10.70;99.90
28823;DHT22;15961;54.678;9.110;2022-08-30T03:12:01;10.60;99.90
28823;DHT22;15961;54.678;9.110;2022-08-30T03:14:27;10.50;99.90
28823;DHT22;15961;54.678;9.110;2022-08-30T03:16:53;10.40;99.90
28823;DHT22;15961;54.678;9.110;2022-08-30T03:19:20;10.40;99.90
28823;DHT22;15961;54.678;9.110;2022-08-30T03:21:45;10.30;99.90
28823;DHT22;15961;54.678;9.110;2022-08-30T03:24:11;10.20;99.90
28823;DHT22;15961;54.678;9.110;2022-08-30T03:26:37;10.20;99.90
28823;DHT22;15961;54.678;9.110;2022-08-30T03:29:03;10.10;99.90
28823;DHT22;15961;54.678;9.110;2022-08-30T03:31:29;10.10;99.90
28823;DHT22;15961;54.678;9.110;2022-08-30T03:33:55;10.00;99.90
28823;DHT22;15961;54.678;9.110;2022-08-30T03:36:20;10.00;99.90
28823;DHT22;15961;54.678;9.110;2022-08-30T03:38:46;9.90;99.90
28823;DHT22;15961;54.678;9.110;2022-08-30T03:41:12;9.90;99.90
28823;DHT22;15961;54.678;9.110;2022-08-30T03:43:37;9.90;99.90
28823;DHT22;15961;54.678;9.110;2022-08-30T03:46:03;9.80;99.90
28823;DHT22;15961;54.678;9.110;2022-08-30T03:48:29;9.70;99.90
28823;DHT22;15961;54.678;9.110;2022-08-30T03:50:55;9.60;99.90
28823;DHT22;15961;54.678;9.110;2022-08-30T03:53:21;9.60;99.90
28823;DHT22;15961;54.678;9.110;2022-08-30T03:55:47;9.50;99.90
28823;DHT22;15961;54.678;9.110;2022-08-30T03:58:13;9.50;99.90
28823;DHT22;15961;54.678;9.110;2022-08-30T04:00:38;9.30;99.90
28823;DHT22;15961;54.678;9.110;2022-08-30T04:03:04;9.40;99.90
28823;DHT22;15961;54.678;9.110;2022-08-30T04:05:30;9.30;99.90
28823;DHT22;15961;54.678;9.110;2022-08-30T04:07:56;9.20;99.90
28823;DHT22;15961;54.678;9.110;2022-08-30T04:10:22;9.20;99.90
28823;DHT22;15961;54.678;9.110;2022-08-30T04:12:49;9.20;99.90
28823;DHT22;15961;54.678;9.110;2022-08-30T04:15:16;9.10;99.90
28823;DHT22;15961;54.678;9.110;2022-08-30T04:17:42;9.00;99.90
28823;DHT22;15961;54.678;9.110;2022-08-30T04:20:08;9.00;99.90
28823;DHT22;15961;54.678;9.110;2022-08-30T04:22:34;9.10;99.90
28823;DHT22;15961;54.678;9.110;2022-08-30T04:25:01;9.10;99.90
28823;DHT22;15961;54.678;9.110;2022-08-30T04:27:27;9.20;99.90
28823;DHT22;15961;54.678;9.110;2022-08-30T04:29:53;9.20;99.90
28823;DHT22;15961;54.678;9.110;2022-08-30T04:32:20;9.30;99.90
28823;DHT22;15961;54.678;9.110;2022-08-30T04:34:46;9.30;99.90
28823;DHT22;15961;54.678;9.110;2022-08-30T04:37:12;9.40;99.90
28823;DHT22;15961;54.678;9.110;2022-08-30T04:39:38;9.50;99.90
28823;DHT22;15961;54.678;9.110;2022-08-30T04:42:04;9.50;99.90
28823;DHT22;15961;54.678;9.110;2022-08-30T04:44:31;9.60;99.90
28823;DHT22;15961;54.678;9.110;2022-08-30T04:46:57;9.50;99.90
28823;DHT22;15961;54.678;9.110;2022-08-30T04:49:23;9.50;99.90
28823;DHT22;15961;54.678;9.110;2022-08-30T04:51:49;9.50;99.90
28823;DHT22;15961;54.678;9.110;2022-08-30T04:54:14;9.50;99.90
28823;DHT22;15961;54.678;9.110;2022-08-30T04:56:40;9.40;99.90
28823;DHT22;15961;54.678;9.110;2022-08-30T04:59:05;9.50;99.90
28823;DHT22;15961;54.678;9.110;2022-08-30T05:01:32;9.50;99.90
28823;DHT22;15961;54.678;9.110;2022-08-30T05:03:58;9.50;99.90
28823;DHT22;15961;54.678;9.110;2022-08-30T05:06:27;9.50;99.90
28823;DHT22;15961;54.678;9.110;2022-08-30T05:08:53;9.60;99.90
28823;DHT22;15961;54.678;9.110;2022-08-30T05:11:20;9.60;99.90
28823;DHT22;15961;54.678;9.110;2022-08-30T05:13:45;9.70;99.90
28823;DHT22;15961;54.678;9.110;2022-08-30T05:16:12;9.70;99.90
28823;DHT22;15961;54.678;9.110;2022-08-30T05:18:42;9.70;99.90
28823;DHT22;15961;54.678;9.110;2022-08-30T05:21:11;9.70;99.90
28823;DHT22;15961;54.678;9.110;2022-08-30T05:23:38;9.80;99.90
28823;DHT22;15961;54.678;9.110;2022-08-30T05:26:06;9.90;99.90
28823;DHT22;15961;54.678;9.110;2022-08-30T05:28:34;10.10;99.90
28823;DHT22;15961;54.678;9.110;2022-08-30T05:31:00;10.30;99.90
28823;DHT22;15961;54.678;9.110;2022-08-30T05:33:25;10.50;99.90
28823;DHT22;15961;54.678;9.110;2022-08-30T05:35:51;10.80;99.90
28823;DHT22;15961;54.678;9.110;2022-08-30T05:38:16;11.00;99.90
28823;DHT22;15961;54.678;9.110;2022-08-30T05:40:42;11.20;99.90
28823;DHT22;15961;54.678;9.110;2022-08-30T05:43:09;11.50;99.90
28823;DHT22;15961;54.678;9.110;2022-08-30T05:45:36;11.80;99.90
28823;DHT22;15961;54.678;9.110;2022-08-30T05:48:02;12.00;99.90
28823;DHT22;15961;54.678;9.110;2022-08-30T05:50:27;12.10;99.90
28823;DHT22;15961;54.678;9.110;2022-08-30T05:52:53;12.20;99.90
28823;DHT22;15961;54.678;9.110;2022-08-30T05:55:18;12.30;99.90
28823;DHT22;15961;54.678;9.110;2022-08-30T05:57:44;12.30;99.90
28823;DHT22;15961;54.678;9.110;2022-08-30T06:00:12;12.40;99.90
28823;DHT22;15961;54.678;9.110;2022-08-30T06:02:40;12.60;99.90
28823;DHT22;15961;54.678;9.110;2022-08-30T06:05:06;12.80;99.90
28823;DHT22;15961;54.678;9.110;2022-08-30T06:07:32;12.80;99.90
28823;DHT22;15961;54.678;9.110;2022-08-30T06:09:58;12.80;99.90
28823;DHT22;15961;54.678;9.110;2022-08-30T06:12:23;12.90;99.90
28823;DHT22;15961;54.678;9.110;2022-08-30T06:14:49;13.00;99.90
28823;DHT22;15961;54.678;9.110;2022-08-30T06:17:14;13.00;99.90
28823;DHT22;15961;54.678;9.110;2022-08-30T06:19:40;13.00;99.90
28823;DHT22;15961;54.678;9.110;2022-08-30T06:22:06;13.20;99.90
28823;DHT22;15961;54.678;9.110;2022-08-30T06:24:32;13.30;99.90
28823;DHT22;15961;54.678;9.110;2022-08-30T06:26:57;13.40;99.90
28823;DHT22;15961;54.678;9.110;2022-08-30T06:29:23;13.60;99.90
28823;DHT22;15961;54.678;9.110;2022-08-30T06:31:48;13.70;99.90
28823;DHT22;15961;54.678;9.110;2022-08-30T06:34:15;13.90;99.90
28823;DHT22;15961;54.678;9.110;2022-08-30T06:36:41;14.10;99.90
28823;DHT22;15961;54.678;9.110;2022-08-30T06:39:07;14.20;99.90
28823;DHT22;15961;54.678;9.110;2022-08-30T06:41:35;14.50;99.90
28823;DHT22;15961;54.678;9.110;2022-08-30T06:44:02;14.80;99.90
28823;DHT22;15961;54.678;9.110;2022-08-30T06:46:31;15.00;99.90
28823;DHT22;15961;54.678;9.110;2022-08-30T06:48:58;15.10;99.90
28823;DHT22;15961;54.678;9.110;2022-08-30T06:51:27;15.30;99.90
28823;DHT22;15961;54.678;9.110;2022-08-30T06:53:53;15.40;99.90
28823;DHT22;15961;54.678;9.110;2022-08-30T06:56:20;15.50;99.90
28823;DHT22;15961;54.678;9.110;2022-08-30T06:58:46;15.60;99.90
28823;DHT22;15961;54.678;9.110;2022-08-30T07:01:17;15.70;99.90
28823;DHT22;15961;54.678;9.110;2022-08-30T07:03:43;15.80;99.90
28823;DHT22;15961;54.678;9.110;2022-08-30T07:06:09;15.90;99.90
28823;DHT22;15961;54.678;9.110;2022-08-30T07:08:35;16.00;99.90
28823;DHT22;15961;54.678;9.110;2022-08-30T07:11:01;16.10;99.90
28823;DHT22;15961;54.678;9.110;2022-08-30T07:13:28;16.30;99.90
28823;DHT22;15961;54.678;9.110;2022-08-30T07:15:53;16.40;99.90
28823;DHT22;15961;54.678;9.110;2022-08-30T07:18:19;16.40;99.90
28823;DHT22;15961;54.678;9.110;2022-08-30T07:21:13;16.50;99.90
28823;DHT22;15961;54.678;9.110;2022-08-30T07:23:40;16.60;99.90
28823;DHT22;15961;54.678;9.110;2022-08-30T07:26:09;16.80;99.90
28823;DHT22;15961;54.678;9.110;2022-08-30T07:28:39;17.00;99.90
28823;DHT22;15961;54.678;9.110;2022-08-30T07:31:05;17.10;99.90
28823;DHT22;15961;54.678;9.110;2022-08-30T07:33:31;17.40;99.90
28823;DHT22;15961;54.678;9.110;2022-08-30T07:35:57;17.60;99.90
28823;DHT22;15961;54.678;9.110;2022-08-30T07:38:27;17.90;99.90
28823;DHT22;15961;54.678;9.110;2022-08-30T07:40:53;18.20;99.90
28823;DHT22;15961;54.678;9.110;2022-08-30T07:43:18;18.50;99.90
28823;DHT22;15961;54.678;9.110;2022-08-30T07:45:44;18.60;99.90
28823;DHT22;15961;54.678;9.110;2022-08-30T07:48:10;18.60;99.90
28823;DHT22;15961;54.678;9.110;2022-08-30T07:50:38;18.70;99.90
28823;DHT22;15961;54.678;9.110;2022-08-30T07:53:04;18.70;99.90
28823;DHT22;15961;54.678;9.110;2022-08-30T07:55:29;18.60;99.90
28823;DHT22;15961;54.678;9.110;2022-08-30T07:57:55;18.50;99.90
28823;DHT22;15961;54.678;9.110;2022-08-30T08:00:21;18.40;99.90
28823;DHT22;15961;54.678;9.110;2022-08-30T08:02:46;18.40;99.90
28823;DHT22;15961;54.678;9.110;2022-08-30T08:05:12;18.40;99.90
28823;DHT22;15961;54.678;9.110;2022-08-30T08:07:38;18.40;99.90
28823;DHT22;15961;54.678;9.110;2022-08-30T08:10:04;18.30;99.90
28823;DHT22;15961;54.678;9.110;2022-08-30T08:12:30;18.40;99.90
28823;DHT22;15961;54.678;9.110;2022-08-30T08:14:56;18.50;99.90
28823;DHT22;15961;54.678;9.110;2022-08-30T08:17:21;18.50;99.90
28823;DHT22;15961;54.678;9.110;2022-08-30T08:19:47;18.70;99.90
28823;DHT22;15961;54.678;9.110;2022-08-30T08:22:13;19.00;99.90
28823;DHT22;15961;54.678;9.110;2022-08-30T08:24:38;19.30;99.90
28823;DHT22;15961;54.678;9.110;2022-08-30T08:27:04;19.40;99.90
28823;DHT22;15961;54.678;9.110;2022-08-30T08:29:30;19.40;99.90
28823;DHT22;15961;54.678;9.110;2022-08-30T08:31:55;19.30;99.90
28823;DHT22;15961;54.678;9.110;2022-08-30T08:34:22;19.30;99.90
28823;DHT22;15961;54.678;9.110;2022-08-30T08:36:49;19.30;99.90
28823;DHT22;15961;54.678;9.110;2022-08-30T08:39:15;19.40;99.90
28823;DHT22;15961;54.678;9.110;2022-08-30T08:49:57;19.90;99.90
28823;DHT22;15961;54.678;9.110;2022-08-30T08:52:36;20.00;99.90
28823;DHT22;15961;54.678;9.110;2022-08-30T08:55:24;20.00;99.90
28823;DHT22;15961;54.678;9.110;2022-08-30T08:57:50;20.10;99.90
28823;DHT22;15961;54.678;9.110;2022-08-30T09:00:16;20.10;99.90
28823;DHT22;15961;54.678;9.110;2022-08-30T09:02:50;20.10;99.90
28823;DHT22;15961;54.678;9.110;2022-08-30T09:05:20;20.20;99.90
28823;DHT22;15961;54.678;9.110;2022-08-30T09:07:49;20.00;99.90
28823;DHT22;15961;54.678;9.110;2022-08-30T09:10:16;20.10;99.90
28823;DHT22;15961;54.678;9.110;2022-08-30T09:12:42;20.00;99.90
28823;DHT22;15961;54.678;9.110;2022-08-30T09:15:19;19.80;99.90
28823;DHT22;15961;54.678;9.110;2022-08-30T09:17:54;19.70;99.90
28823;DHT22;15961;54.678;9.110;2022-08-30T09:20:32;19.60;99.90
28823;DHT22;15961;54.678;9.110;2022-08-30T09:23:20;19.60;99.90
28823;DHT22;15961;54.678;9.110;2022-08-30T09:25:55;19.60;99.90
28823;DHT22;15961;54.678;9.110;2022-08-30T09:28:29;19.70;99.90
28823;DHT22;15961;54.678;9.110;2022-08-30T09:33:30;19.90;99.90
28823;DHT22;15961;54.678;9.110;2022-08-30T09:35:56;20.10;99.90
28823;DHT22;15961;54.678;9.110;2022-08-30T09:38:33;20.50;99.90
28823;DHT22;15961;54.678;9.110;2022-08-30T09:41:52;20.60;99.90
28823;DHT22;15961;54.678;9.110;2022-08-30T09:44:23;20.70;99.90
28823;DHT22;15961;54.678;9.110;2022-08-30T09:46:58;20.70;99.90
28823;DHT22;15961;54.678;9.110;2022-08-30T09:49:36;20.70;99.90
28823;DHT22;15961;54.678;9.110;2022-08-30T09:55:08;20.70;99.90
28823;DHT22;15961;54.678;9.110;2022-08-30T09:58:00;20.50;99.90
28823;DHT22;15961;54.678;9.110;2022-08-30T10:00:28;20.30;99.90
28823;DHT22;15961;54.678;9.110;2022-08-30T10:11:01;21.40;99.90
28823;DHT22;15961;54.678;9.110;2022-08-30T10:19:28;22.10;99.90
28823;DHT22;15961;54.678;9.110;2022-08-30T10:22:18;22.00;99.90
28823;DHT22;15961;54.678;9.110;2022-08-30T10:28:02;21.50;99.90
28823;DHT22;15961;54.678;9.110;2022-08-30T10:30:30;21.20;99.90
28823;DHT22;15961;54.678;9.110;2022-08-30T10:35:44;20.60;99.90
28823;DHT22;15961;54.678;9.110;2022-08-30T10:40:46;20.10;99.90
28823;DHT22;15961;54.678;9.110;2022-08-30T10:44:00;20.00;99.90
28823;DHT22;15961;54.678;9.110;2022-08-30T10:46:35;19.90;99.90
28823;DHT22;15961;54.678;9.110;2022-08-30T10:49:07;19.80;99.90
28823;DHT22;15961;54.678;9.110;2022-08-30T10:54:40;20.20;99.90
28823;DHT22;15961;54.678;9.110;2022-08-30T10:57:09;21.00;99.90
28823;DHT22;15961;54.678;9.110;2022-08-30T10:59:38;21.70;99.90
28823;DHT22;15961;54.678;9.110;2022-08-30T11:02:39;22.30;99.90
28823;DHT22;15961;54.678;9.110;2022-08-30T11:10:52;24.10;99.90
28823;DHT22;15961;54.678;9.110;2022-08-30T11:13:29;24.40;99.90
28823;DHT22;15961;54.678;9.110;2022-08-30T11:16:04;24.60;99.90
28823;DHT22;15961;54.678;9.110;2022-08-30T11:18:51;25.00;99.90
28823;DHT22;15961;54.678;9.110;2022-08-30T11:29:41;25.10;99.90
28823;DHT22;15961;54.678;9.110;2022-08-30T11:42:49;25.90;99.90
28823;DHT22;15961;54.678;9.110;2022-08-30T11:58:18;26.10;99.00
28823;DHT22;15961;54.678;9.110;2022-08-30T12:00:46;26.80;98.90
28823;DHT22;15961;54.678;9.110;2022-08-30T12:05:44;27.60;95.80
28823;DHT22;15961;54.678;9.110;2022-08-30T12:10:51;27.60;93.70
28823;DHT22;15961;54.678;9.110;2022-08-30T12:18:59;26.60;93.50
28823;DHT22;15961;54.678;9.110;2022-08-30T12:21:35;26.00;95.20
28823;DHT22;15961;54.678;9.110;2022-08-30T12:26:36;27.80;92.80
28823;DHT22;15961;54.678;9.110;2022-08-30T12:29:25;28.80;90.90
28823;DHT22;15961;54.678;9.110;2022-08-30T12:31:54;29.60;90.50
28823;DHT22;15961;54.678;9.110;2022-08-30T12:37:19;30.20;83.80
28823;DHT22;15961;54.678;9.110;2022-08-30T12:39:45;30.60;85.20
28823;DHT22;15961;54.678;9.110;2022-08-30T12:42:21;30.80;80.10
28823;DHT22;15961;54.678;9.110;2022-08-30T12:44:54;30.80;79.90
28823;DHT22;15961;54.678;9.110;2022-08-30T12:50:12;29.60;78.50
28823;DHT22;15961;54.678;9.110;2022-08-30T12:52:44;29.20;78.40
28823;DHT22;15961;54.678;9.110;2022-08-30T12:55:18;29.30;78.50
28823;DHT22;15961;54.678;9.110;2022-08-30T13:00:32;29.90;74.50
28823;DHT22;15961;54.678;9.110;2022-08-30T13:03:04;30.50;74.90
28823;DHT22;15961;54.678;9.110;2022-08-30T13:10:36;31.00;71.50
28823;DHT22;15961;54.678;9.110;2022-08-30T13:16:05;31.80;73.40
28823;DHT22;15961;54.678;9.110;2022-08-30T13:18:30;31.60;71.20
28823;DHT22;15961;54.678;9.110;2022-08-30T13:21:32;31.60;70.20
28823;DHT22;15961;54.678;9.110;2022-08-30T13:24:03;31.50;69.60
28823;DHT22;15961;54.678;9.110;2022-08-30T13:26:32;31.60;72.10
28823;DHT22;15961;54.678;9.110;2022-08-30T13:29:01;31.80;69.00
28823;DHT22;15961;54.678;9.110;2022-08-30T13:31:28;31.40;66.90
28823;DHT22;15961;54.678;9.110;2022-08-30T13:33:55;30.20;68.30
28823;DHT22;15961;54.678;9.110;2022-08-30T13:36:25;30.10;70.50
28823;DHT22;15961;54.678;9.110;2022-08-30T13:38:52;29.40;69.80
28823;DHT22;15961;54.678;9.110;2022-08-30T13:41:18;29.90;73.20
28823;DHT22;15961;54.678;9.110;2022-08-30T13:43:46;30.70;71.90
28823;DHT22;15961;54.678;9.110;2022-08-30T13:46:13;30.90;68.50
28823;DHT22;15961;54.678;9.110;2022-08-30T13:48:40;29.80;69.90
28823;DHT22;15961;54.678;9.110;2022-08-30T13:51:05;28.60;71.70
28823;DHT22;15961;54.678;9.110;2022-08-30T13:53:31;28.30;74.80
28823;DHT22;15961;54.678;9.110;2022-08-30T13:55:57;28.50;70.40
28823;DHT22;15961;54.678;9.110;2022-08-30T13:58:22;28.10;71.30
28823;DHT22;15961;54.678;9.110;2022-08-30T14:00:48;28.30;73.60
28823;DHT22;15961;54.678;9.110;2022-08-30T14:03:14;29.00;73.20
28823;DHT22;15961;54.678;9.110;2022-08-30T14:05:42;28.70;71.90
28823;DHT22;15961;54.678;9.110;2022-08-30T14:08:09;27.50;75.00
28823;DHT22;15961;54.678;9.110;2022-08-30T14:10:36;26.20;76.50
28823;DHT22;15961;54.678;9.110;2022-08-30T14:13:03;25.50;80.00
28823;DHT22;15961;54.678;9.110;2022-08-30T14:15:30;26.10;76.00
28823;DHT22;15961;54.678;9.110;2022-08-30T14:17:56;26.90;76.00
28823;DHT22;15961;54.678;9.110;2022-08-30T14:20:22;28.00;76.20
28823;DHT22;15961;54.678;9.110;2022-08-30T14:22:47;28.90;73.30
28823;DHT22;15961;54.678;9.110;2022-08-30T14:25:13;28.90;72.00
28823;DHT22;15961;54.678;9.110;2022-08-30T14:27:38;28.50;73.00
28823;DHT22;15961;54.678;9.110;2022-08-30T14:30:05;27.90;73.80
28823;DHT22;15961;54.678;9.110;2022-08-30T14:32:31;28.50;73.60
28823;DHT22;15961;54.678;9.110;2022-08-30T14:34:57;28.90;71.50
28823;DHT22;15961;54.678;9.110;2022-08-30T14:37:22;29.00;72.10
28823;DHT22;15961;54.678;9.110;2022-08-30T14:39:48;29.00;71.80
28823;DHT22;15961;54.678;9.110;2022-08-30T14:42:14;29.50;71.50
28823;DHT22;15961;54.678;9.110;2022-08-30T14:44:39;29.80;68.50
28823;DHT22;15961;54.678;9.110;2022-08-30T14:47:06;30.00;67.90
28823;DHT22;15961;54.678;9.110;2022-08-30T14:49:32;30.20;70.40
28823;DHT22;15961;54.678;9.110;2022-08-30T14:51:57;30.20;69.50
28823;DHT22;15961;54.678;9.110;2022-08-30T14:54:27;29.70;67.60
28823;DHT22;15961;54.678;9.110;2022-08-30T14:56:53;29.00;69.50
28823;DHT22;15961;54.678;9.110;2022-08-30T14:59:20;28.90;71.10
28823;DHT22;15961;54.678;9.110;2022-08-30T15:01:46;29.40;71.20
28823;DHT22;15961;54.678;9.110;2022-08-30T15:04:12;29.70;68.70
28823;DHT22;15961;54.678;9.110;2022-08-30T15:06:40;29.90;67.10
28823;DHT22;15961;54.678;9.110;2022-08-30T15:09:08;29.80;68.30
28823;DHT22;15961;54.678;9.110;2022-08-30T15:11:34;30.00;68.70
28823;DHT22;15961;54.678;9.110;2022-08-30T15:14:01;29.30;67.80
28823;DHT22;15961;54.678;9.110;2022-08-30T15:16:29;28.50;70.80
28823;DHT22;15961;54.678;9.110;2022-08-30T15:18:59;28.10;71.60
28823;DHT22;15961;54.678;9.110;2022-08-30T15:21:30;28.00;72.40
28823;DHT22;15961;54.678;9.110;2022-08-30T15:23:57;28.20;70.10
28823;DHT22;15961;54.678;9.110;2022-08-30T15:26:23;28.30;70.40
28823;DHT22;15961;54.678;9.110;2022-08-30T15:28:49;28.50;70.80
28823;DHT22;15961;54.678;9.110;2022-08-30T15:31:18;29.00;69.50
28823;DHT22;15961;54.678;9.110;2022-08-30T15:33:45;29.20;69.50
28823;DHT22;15961;54.678;9.110;2022-08-30T15:36:11;29.60;68.00
28823;DHT22;15961;54.678;9.110;2022-08-30T15:38:36;29.50;66.70
28823;DHT22;15961;54.678;9.110;2022-08-30T15:41:05;29.00;69.00
28823;DHT22;15961;54.678;9.110;2022-08-30T15:43:33;28.90;70.80
28823;DHT22;15961;54.678;9.110;2022-08-30T15:48:38;29.00;69.00
28823;DHT22;15961;54.678;9.110;2022-08-30T15:51:03;29.00;68.90
28823;DHT22;15961;54.678;9.110;2022-08-30T15:53:32;29.20;68.00
28823;DHT22;15961;54.678;9.110;2022-08-30T15:55:58;29.20;67.50
28823;DHT22;15961;54.678;9.110;2022-08-30T15:58:23;28.60;68.30
28823;DHT22;15961;54.678;9.110;2022-08-30T16:00:49;27.50;69.30
28823;DHT22;15961;54.678;9.110;2022-08-30T16:03:15;26.60;72.60
28823;DHT22;15961;54.678;9.110;2022-08-30T16:05:40;26.10;74.90
28823;DHT22;15961;54.678;9.110;2022-08-30T16:08:06;25.60;75.10
28823;DHT22;15961;54.678;9.110;2022-08-30T16:10:31;25.80;74.90
28823;DHT22;15961;54.678;9.110;2022-08-30T16:12:57;26.50;75.50
28823;DHT22;15961;54.678;9.110;2022-08-30T16:15:24;26.60;73.30
28823;DHT22;15961;54.678;9.110;2022-08-30T16:17:50;26.80;72.70
28823;DHT22;15961;54.678;9.110;2022-08-30T16:20:16;26.80;72.50
28823;DHT22;15961;54.678;9.110;2022-08-30T16:22:41;26.90;73.40
28823;DHT22;15961;54.678;9.110;2022-08-30T16:25:07;26.60;73.10
28823;DHT22;15961;54.678;9.110;2022-08-30T16:27:33;26.30;74.00
28823;DHT22;15961;54.678;9.110;2022-08-30T16:29:59;26.10;73.80
28823;DHT22;15961;54.678;9.110;2022-08-30T16:32:24;25.70;76.30
28823;DHT22;15961;54.678;9.110;2022-08-30T16:34:50;25.60;77.60
28823;DHT22;15961;54.678;9.110;2022-08-30T16:37:16;25.70;76.80
28823;DHT22;15961;54.678;9.110;2022-08-30T16:39:42;25.80;74.90
28823;DHT22;15961;54.678;9.110;2022-08-30T16:42:07;26.20;75.40
28823;DHT22;15961;54.678;9.110;2022-08-30T16:44:33;26.70;75.60
28823;DHT22;15961;54.678;9.110;2022-08-30T16:46:59;26.90;74.70
28823;DHT22;15961;54.678;9.110;2022-08-30T16:49:24;27.00;74.10
28823;DHT22;15961;54.678;9.110;2022-08-30T16:51:50;26.90;73.40
28823;DHT22;15961;54.678;9.110;2022-08-30T16:54:15;26.60;73.80
28823;DHT22;15961;54.678;9.110;2022-08-30T16:56:42;26.40;75.00
28823;DHT22;15961;54.678;9.110;2022-08-30T16:59:08;26.50;75.20
28823;DHT22;15961;54.678;9.110;2022-08-30T17:01:35;26.60;75.00
28823;DHT22;15961;54.678;9.110;2022-08-30T17:04:06;26.40;75.70
28823;DHT22;15961;54.678;9.110;2022-08-30T17:06:32;25.70;77.00
28823;DHT22;15961;54.678;9.110;2022-08-30T17:08:58;25.20;78.50
28823;DHT22;15961;54.678;9.110;2022-08-30T17:11:24;24.70;80.10
28823;DHT22;15961;54.678;9.110;2022-08-30T17:13:50;23.80;81.90
28823;DHT22;15961;54.678;9.110;2022-08-30T17:16:16;22.90;83.70
28823;DHT22;15961;54.678;9.110;2022-08-30T17:18:41;22.00;86.90
28823;DHT22;15961;54.678;9.110;2022-08-30T17:21:07;21.40;89.20
28823;DHT22;15961;54.678;9.110;2022-08-30T17:23:33;21.10;90.60
28823;DHT22;15961;54.678;9.110;2022-08-30T17:25:58;20.70;91.60
28823;DHT22;15961;54.678;9.110;2022-08-30T17:28:25;20.50;92.90